Time;durP1;ratioP1;P1;durP2;ratioP2;P2;SDS_P1;SDS_P2;PMS_P1;PMS_P2;Temp;Humidity;BMP_temperature;BMP_pressure;BME280_temperature;BME280_humidity;BME280_pressure;Samples;Min_cycle;Max_cycle;Signal;HPM_P1;HPM_P2
2023/01/26 00:00:45;;;;;;;13.67;3.17;;;;;;;;;;5037226;28;20140;-67
2023/01/26 00:03:12;;;;;;;17.10;3.42;;;;;;;;;;5049999;28;20052;-67
2023/01/26 00:05:39;;;;;;;13.93;3.92;;;;;;;;;;5051941;28;20055;-67
2023/01/26 00:08:06;;;;;;;15.82;3.22;;;;;;;;;;5051945;28;20159;-67
2023/01/26 00:10:33;;;;;;;11.73;2.97;;;;;;;;;;5043938;28;20055;-67
2023/01/26 00:13:00;;;;;;;14.65;3.50;;;;;;;;;;5046660;28;20098;-67
2023/01/26 00:15:26;;;;;;;17.08;3.03;;;;;;;;;;5052091;28;20088;-66
2023/01/26 00:17:53;;;;;;;16.85;3.30;;;;;;;;;;5051064;28;20480;-66
2023/01/26 00:20:19;;;;;;;19.08;3.55;;;;;;;;;;5051934;28;20397;-66
2023/01/26 00:22:45;;;;;;;19.13;3.22;;;;;;;;;;5051648;28;20064;-66
2023/01/26 00:25:12;;;;;;;15.57;3.42;;;;;;;;;;5052040;28;20056;-66
2023/01/26 00:27:38;;;;;;;18.13;3.22;;;;;;;;;;5050732;28;20052;-66
2023/01/26 00:30:05;;;;;;;17.60;3.15;;;;;;;;;;5052058;28;20045;-66
2023/01/26 00:32:33;;;;;;;9.77;3.20;;;;;;;;;;5051741;28;20475;-66
2023/01/26 00:35:00;;;;;;;19.88;3.25;;;;;;;;;;5051705;28;20055;-66
2023/01/26 00:37:26;;;;;;;16.20;3.40;;;;;;;;;;5051534;28;20140;-66
2023/01/26 00:39:53;;;;;;;13.07;3.58;;;;;;;;;;5051591;28;20572;-66
2023/01/26 00:42:20;;;;;;;18.02;3.30;;;;;;;;;;5051808;28;20405;-66
2023/01/26 00:44:47;;;;;;;15.27;3.13;;;;;;;;;;5050449;28;20124;-66
2023/01/26 00:47:13;;;;;;;18.38;3.72;;;;;;;;;;5051572;28;20045;-66
2023/01/26 00:49:39;;;;;;;24.35;3.67;;;;;;;;;;5051764;28;20047;-67
2023/01/26 00:52:06;;;;;;;14.95;3.05;;;;;;;;;;5051719;28;20051;-67
2023/01/26 00:54:32;;;;;;;21.33;4.10;;;;;;;;;;5051373;28;20135;-66
2023/01/26 00:56:59;;;;;;;15.43;3.45;;;;;;;;;;5051364;28;20083;-66
2023/01/26 00:59:26;;;;;;;15.43;3.40;;;;;;;;;;5051458;28;20056;-67
2023/01/26 01:01:53;;;;;;;16.83;4.35;;;;;;;;;;5051526;28;20055;-66
2023/01/26 01:04:19;;;;;;;16.08;3.70;;;;;;;;;;5050240;28;20049;-67
2023/01/26 01:06:46;;;;;;;16.30;3.47;;;;;;;;;;5051491;28;20048;-67
2023/01/26 01:09:12;;;;;;;20.23;4.15;;;;;;;;;;5051477;28;20052;-67
2023/01/26 01:11:39;;;;;;;14.32;3.38;;;;;;;;;;5047779;28;20053;-67
2023/01/26 01:14:05;;;;;;;15.73;3.30;;;;;;;;;;5041021;28;20049;-67
2023/01/26 01:16:31;;;;;;;21.55;3.97;;;;;;;;;;5051472;28;20055;-67
2023/01/26 01:18:58;;;;;;;17.45;3.65;;;;;;;;;;5051366;28;20045;-67
2023/01/26 01:21:25;;;;;;;15.20;3.47;;;;;;;;;;5050959;28;20465;-67
2023/01/26 01:23:51;;;;;;;16.95;3.65;;;;;;;;;;5051083;28;20511;-67
2023/01/26 01:26:18;;;;;;;17.15;3.20;;;;;;;;;;5049906;28;20409;-66
2023/01/26 01:28:44;;;;;;;18.52;3.58;;;;;;;;;;5052688;28;20575;-66
2023/01/26 01:31:13;;;;;;;20.10;3.88;;;;;;;;;;5055350;28;20053;-66
2023/01/26 01:33:39;;;;;;;15.98;3.80;;;;;;;;;;5054923;28;20056;-67
2023/01/26 01:36:09;;;;;;;21.02;3.97;;;;;;;;;;5055116;28;20139;-67
2023/01/26 01:38:35;;;;;;;18.20;3.10;;;;;;;;;;5055202;28;20055;-67
2023/01/26 01:41:02;;;;;;;16.65;3.55;;;;;;;;;;5054992;28;20135;-67
2023/01/26 01:43:28;;;;;;;19.45;3.33;;;;;;;;;;5054791;28;20045;-67
2023/01/26 01:45:54;;;;;;;16.17;4.05;;;;;;;;;;5054792;28;20045;-67
2023/01/26 01:48:29;;;;;;;14.80;3.38;;;;;;;;;;5053719;28;20132;-67
2023/01/26 01:51:02;;;;;;;13.57;2.67;;;;;;;;;;5054630;28;20044;-66
2023/01/26 01:53:32;;;;;;;20.98;4.63;;;;;;;;;;5053594;28;20049;-66
2023/01/26 01:56:00;;;;;;;17.20;3.95;;;;;;;;;;5054525;28;20496;-66
2023/01/26 01:58:26;;;;;;;;;;;;;;;;;;5055010;28;20044;-67
2023/01/26 02:00:52;;;;;;;17.73;3.33;;;;;;;;;;5054463;28;19921;-66
2023/01/26 02:03:20;;;;;;;15.23;2.85;;;;;;;;;;5054595;28;20044;-66
2023/01/26 02:05:50;;;;;;;15.70;3.23;;;;;;;;;;5054397;28;20576;-66
2023/01/26 02:08:18;;;;;;;17.13;3.15;;;;;;;;;;5054463;28;20055;-66
2023/01/26 02:10:46;;;;;;;18.42;3.38;;;;;;;;;;5054649;28;20147;-66
2023/01/26 02:13:12;;;;;;;;;;;;;;;;;;5054846;28;20055;-66
2023/01/26 02:15:39;;;;;;;17.80;3.92;;;;;;;;;;5054445;28;19920;-66
2023/01/26 02:18:05;;;;;;;17.67;3.85;;;;;;;;;;5054248;28;20537;-66
2023/01/26 02:20:38;;;;;;;20.50;4.35;;;;;;;;;;5054056;28;20143;-66
2023/01/26 02:23:07;;;;;;;20.50;4.75;;;;;;;;;;5053966;28;20053;-66
2023/01/26 02:25:33;;;;;;;17.60;4.03;;;;;;;;;;5053902;28;20056;-66
2023/01/26 02:28:00;;;;;;;12.07;3.03;;;;;;;;;;5054247;28;20378;-66
2023/01/26 02:30:27;;;;;;;16.92;3.63;;;;;;;;;;5053901;28;20534;-66
2023/01/26 02:32:54;;;;;;;16.45;3.97;;;;;;;;;;5053898;28;20045;-66
2023/01/26 02:35:20;;;;;;;17.38;4.22;;;;;;;;;;5054231;28;20049;-66
2023/01/26 02:37:47;;;;;;;20.02;3.67;;;;;;;;;;5053779;28;20132;-66
2023/01/26 02:40:31;;;;;;;22.17;4.32;;;;;;;;;;5052695;28;20492;-66
2023/01/26 02:42:58;;;;;;;15.98;3.38;;;;;;;;;;5053767;28;20136;-66
2023/01/26 02:45:25;;;;;;;21.80;4.15;;;;;;;;;;5053660;28;20045;-66
2023/01/26 02:47:51;;;;;;;15.90;3.97;;;;;;;;;;5053598;28;20515;-66
2023/01/26 02:50:17;;;;;;;13.75;3.58;;;;;;;;;;5053597;28;20365;-67
2023/01/26 02:52:44;;;;;;;19.02;3.45;;;;;;;;;;5053421;28;20501;-67
2023/01/26 02:55:27;;;;;;;20.52;4.40;;;;;;;;;;5053720;28;20136;-66
2023/01/26 02:57:54;;;;;;;18.70;4.07;;;;;;;;;;5053352;28;20140;-66
2023/01/26 03:00:25;;;;;;;20.08;4.10;;;;;;;;;;5053415;28;20092;-66
2023/01/26 03:02:52;;;;;;;16.40;4.45;;;;;;;;;;5053569;28;20045;-66
2023/01/26 03:05:19;;;;;;;22.17;3.95;;;;;;;;;;5053616;28;20453;-66
2023/01/26 03:07:45;;;;;;;19.25;4.13;;;;;;;;;;5053406;28;20135;-66
2023/01/26 03:10:12;;;;;;;19.00;3.80;;;;;;;;;;5053389;28;20041;-66
2023/01/26 03:12:39;;;;;;;16.07;3.47;;;;;;;;;;5053351;28;20413;-66
2023/01/26 03:17:50;;;;;;;19.27;3.60;;;;;;;;;;5053050;28;20053;-66
2023/01/26 03:28:31;;;;;;;17.02;3.90;;;;;;;;;;5051935;28;20056;-66
2023/01/26 03:30:58;;;;;;;16.35;4.10;;;;;;;;;;5052989;28;20143;-66
2023/01/26 03:33:24;;;;;;;19.40;3.88;;;;;;;;;;5052755;28;20591;-66
2023/01/26 03:35:52;;;;;;;19.83;4.28;;;;;;;;;;5052648;28;20056;-66
2023/01/26 03:38:18;;;;;;;;;;;;;;;;;;5053341;28;20053;-66
2023/01/26 03:57:15;;;;;;;21.20;4.10;;;;;;;;;;5052251;28;20055;-66
2023/01/26 03:59:41;;;;;;;21.08;4.97;;;;;;;;;;5052562;28;20063;-67
2023/01/26 04:10:25;;;;;;;19.65;3.90;;;;;;;;;;5052444;28;20055;-66
2023/01/26 04:23:57;;;;;;;22.25;4.63;;;;;;;;;;5051895;28;20114;-66
2023/01/26 04:26:33;;;;;;;23.30;4.18;;;;;;;;;;5052026;28;20075;-66
2023/01/26 04:29:01;;;;;;;18.00;4.55;;;;;;;;;;5052071;28;20111;-66
2023/01/26 04:31:27;;;;;;;21.17;4.57;;;;;;;;;;5050468;28;20043;-66
2023/01/26 04:33:54;;;;;;;21.52;4.72;;;;;;;;;;5051779;28;20048;-66
2023/01/26 04:36:20;;;;;;;22.48;4.70;;;;;;;;;;5051498;28;20053;-66
2023/01/26 04:38:48;;;;;;;21.95;5.25;;;;;;;;;;5052008;28;20382;-66
2023/01/26 04:41:14;;;;;;;28.73;5.32;;;;;;;;;;5052517;28;20049;-66
2023/01/26 04:43:41;;;;;;;14.65;4.75;;;;;;;;;;5051769;28;20045;-66
2023/01/26 04:46:08;;;;;;;21.02;5.45;;;;;;;;;;5051606;28;20467;-66
2023/01/26 04:48:34;;;;;;;20.45;5.20;;;;;;;;;;5051585;28;20527;-66
2023/01/26 04:51:02;;;;;;;23.77;5.78;;;;;;;;;;5050395;28;20469;-66
2023/01/26 04:53:29;;;;;;;18.70;5.07;;;;;;;;;;5051689;28;20084;-66
2023/01/26 04:55:55;;;;;;;18.65;5.72;;;;;;;;;;5050196;28;20148;-66
2023/01/26 04:58:21;;;;;;;19.05;6.03;;;;;;;;;;5051682;28;20140;-66
2023/01/26 05:00:55;;;;;;;23.73;7.10;;;;;;;;;;5050337;28;20053;-66
2023/01/26 05:03:22;;;;;;;15.50;5.75;;;;;;;;;;5052486;28;20091;-66
2023/01/26 05:05:49;;;;;;;22.83;5.73;;;;;;;;;;5055505;28;20128;-66
2023/01/26 05:08:16;;;;;;;24.55;6.18;;;;;;;;;;5055451;28;20132;-66
2023/01/26 05:10:43;;;;;;;21.52;6.05;;;;;;;;;;5055656;28;20049;-66
2023/01/26 05:13:10;;;;;;;22.30;5.50;;;;;;;;;;5055412;28;20059;-66
2023/01/26 05:15:36;;;;;;;17.40;5.50;;;;;;;;;;5055602;28;20049;-66
2023/01/26 05:18:03;;;;;;;18.85;5.63;;;;;;;;;;5055295;28;20076;-66
2023/01/26 05:20:30;;;;;;;20.70;5.40;;;;;;;;;;5055232;28;20049;-66
2023/01/26 05:22:56;;;;;;;17.27;5.15;;;;;;;;;;5055059;28;20057;-66
2023/01/26 05:25:23;;;;;;;20.98;5.68;;;;;;;;;;5055353;28;20049;-66
2023/01/26 05:27:51;;;;;;;20.30;6.68;;;;;;;;;;5055378;28;20127;-66
2023/01/26 05:30:17;;;;;;;;;;;;;;;;;;5055888;28;20047;-66
2023/01/26 05:32:44;;;;;;;21.63;7.38;;;;;;;;;;5055317;28;20007;-66
2023/01/26 05:35:10;;;;;;;18.10;7.47;;;;;;;;;;5054985;28;20419;-66
2023/01/26 05:37:37;;;;;;;20.08;7.15;;;;;;;;;;5054971;28;20084;-66
2023/01/26 05:40:03;;;;;;;22.00;7.80;;;;;;;;;;5055114;28;20397;-66
2023/01/26 05:42:30;;;;;;;23.10;9.00;;;;;;;;;;5055113;28;20045;-66
2023/01/26 05:44:56;;;;;;;31.08;9.23;;;;;;;;;;5054737;28;20045;-66
2023/01/26 05:47:22;;;;;;;19.15;9.43;;;;;;;;;;5054877;28;20049;-66
2023/01/26 05:49:49;;;;;;;22.73;8.88;;;;;;;;;;5054658;28;20051;-66
2023/01/26 05:52:16;;;;;;;22.27;9.30;;;;;;;;;;5054970;28;20049;-66
2023/01/26 05:54:43;;;;;;;28.88;9.27;;;;;;;;;;5054668;28;20057;-66
2023/01/26 05:57:10;;;;;;;21.35;9.13;;;;;;;;;;5053208;28;20059;-66
2023/01/26 05:59:37;;;;;;;20.90;8.77;;;;;;;;;;5054623;28;20053;-66
2023/01/26 06:02:03;;;;;;;19.77;9.43;;;;;;;;;;5054489;28;20075;-66
2023/01/26 06:04:30;;;;;;;29.48;8.68;;;;;;;;;;5054619;28;20049;-66
2023/01/26 06:06:57;;;;;;;25.02;9.82;;;;;;;;;;5054269;28;20048;-66
2023/01/26 06:09:23;;;;;;;23.48;9.65;;;;;;;;;;5054291;28;20061;-66
2023/01/26 06:11:52;;;;;;;25.30;10.07;;;;;;;;;;5054283;28;20475;-66
2023/01/26 06:14:19;;;;;;;25.83;10.18;;;;;;;;;;5054539;28;20053;-66
2023/01/26 06:16:45;;;;;;;27.08;10.85;;;;;;;;;;5054534;28;20055;-66
2023/01/26 06:19:12;;;;;;;23.23;9.43;;;;;;;;;;5054145;28;20424;-66
2023/01/26 06:21:38;;;;;;;24.23;10.20;;;;;;;;;;5054214;28;20065;-67
2023/01/26 06:24:05;;;;;;;24.00;10.15;;;;;;;;;;5054148;28;20041;-66
2023/01/26 06:26:31;;;;;;;20.52;8.82;;;;;;;;;;5054074;28;20073;-66
2023/01/26 06:28:58;;;;;;;26.33;9.85;;;;;;;;;;5054233;28;20053;-67
2023/01/26 06:31:24;;;;;;;21.63;9.30;;;;;;;;;;5054168;28;20049;-66
2023/01/26 06:33:50;;;;;;;23.42;9.02;;;;;;;;;;5053889;28;20048;-66
2023/01/26 06:36:17;;;;;;;29.45;10.82;;;;;;;;;;5054004;28;20055;-66
2023/01/26 06:38:44;;;;;;;22.52;8.93;;;;;;;;;;5054120;28;20053;-66
2023/01/26 06:41:11;;;;;;;20.38;8.88;;;;;;;;;;5054015;28;20080;-66
2023/01/26 06:43:37;;;;;;;22.75;9.43;;;;;;;;;;5053696;28;20400;-66
2023/01/26 06:46:04;;;;;;;26.38;10.00;;;;;;;;;;5053864;28;20048;-66
2023/01/26 06:48:31;;;;;;;24.25;10.40;;;;;;;;;;5053908;28;20049;-66
2023/01/26 06:51:21;;;;;;;23.15;10.18;;;;;;;;;;5053830;28;20045;-66
2023/01/26 06:53:52;;;;;;;19.60;10.90;;;;;;;;;;5053577;28;20045;-66
2023/01/26 06:56:19;;;;;;;26.02;11.88;;;;;;;;;;5053813;28;20471;-66
2023/01/26 06:58:46;;;;;;;28.25;12.00;;;;;;;;;;5053352;28;20132;-66
2023/01/26 07:01:20;;;;;;;32.08;13.45;;;;;;;;;;5053622;28;20056;-66
2023/01/26 07:03:47;;;;;;;27.23;12.52;;;;;;;;;;5053252;28;20076;-66
2023/01/26 07:06:13;;;;;;;25.70;12.23;;;;;;;;;;5053599;28;20045;-67
2023/01/26 07:08:40;;;;;;;30.55;13.18;;;;;;;;;;5053164;28;20051;-65
2023/01/26 07:11:07;;;;;;;25.48;12.57;;;;;;;;;;5053162;28;20049;-66
2023/01/26 07:13:34;;;;;;;27.63;13.18;;;;;;;;;;5053161;28;20053;-66
2023/01/26 07:16:05;;;;;;;29.10;13.05;;;;;;;;;;5042686;28;20056;-68
2023/01/26 07:18:32;;;;;;;34.35;13.20;;;;;;;;;;5033124;28;20045;-68
2023/01/26 07:21:02;;;;;;;24.67;12.43;;;;;;;;;;5032743;28;20129;-70
2023/01/26 07:23:29;;;;;;;22.20;12.10;;;;;;;;;;5033441;28;20350;-67
2023/01/26 07:25:55;;;;;;;30.55;13.38;;;;;;;;;;5050590;28;20243;-68
2023/01/26 07:28:22;;;;;;;26.83;12.20;;;;;;;;;;5050492;28;20060;-64
2023/01/26 07:30:48;;;;;;;26.05;11.73;;;;;;;;;;5050739;28;20048;-67
2023/01/26 07:33:15;;;;;;;25.60;12.85;;;;;;;;;;5051183;28;20352;-68
2023/01/26 07:35:41;;;;;;;24.55;12.18;;;;;;;;;;5051078;28;20413;-66
2023/01/26 07:38:07;;;;;;;24.55;12.02;;;;;;;;;;5051803;28;20049;-66
2023/01/26 07:40:34;;;;;;;22.63;12.20;;;;;;;;;;5052971;28;20059;-67
2023/01/26 07:43:00;;;;;;;26.88;12.18;;;;;;;;;;5052773;28;20122;-66
2023/01/26 07:45:27;;;;;;;23.67;12.32;;;;;;;;;;5052743;28;20051;-66
2023/01/26 07:47:53;;;;;;;30.42;12.50;;;;;;;;;;5051298;28;20057;-67
2023/01/26 07:50:20;;;;;;;21.42;11.43;;;;;;;;;;5051483;28;20412;-66
2023/01/26 07:52:47;;;;;;;28.10;12.77;;;;;;;;;;5032511;28;20103;-66
2023/01/26 07:55:13;;;;;;;29.02;12.40;;;;;;;;;;5048412;28;20092;-67
2023/01/26 07:57:40;;;;;;;26.55;12.50;;;;;;;;;;5052490;28;20052;-66
2023/01/26 08:00:07;;;;;;;24.90;11.60;;;;;;;;;;5052651;28;20083;-66
2023/01/26 08:02:33;;;;;;;30.02;12.18;;;;;;;;;;5047044;28;20067;-66
2023/01/26 08:05:01;;;;;;;23.38;11.15;;;;;;;;;;5036802;28;20091;-66
2023/01/26 08:07:28;;;;;;;26.50;11.30;;;;;;;;;;5051805;28;20045;-65
2023/01/26 08:09:54;;;;;;;26.70;11.63;;;;;;;;;;5052235;28;20155;-65
2023/01/26 08:12:20;;;;;;;23.27;10.60;;;;;;;;;;5050755;28;20055;-66
2023/01/26 08:14:47;;;;;;;20.15;10.90;;;;;;;;;;5052200;28;20049;-66
2023/01/26 08:17:16;;;;;;;21.23;10.68;;;;;;;;;;5052287;28;20056;-66
2023/01/26 08:19:43;;;;;;;21.65;11.05;;;;;;;;;;5052024;28;20135;-65
2023/01/26 08:22:09;;;;;;;19.20;9.90;;;;;;;;;;5051765;28;20164;-65
2023/01/26 08:24:35;;;;;;;23.45;10.68;;;;;;;;;;5051759;28;20510;-66
2023/01/26 08:27:02;;;;;;;22.70;10.88;;;;;;;;;;5040526;28;20084;-66
2023/01/26 08:29:28;;;;;;;21.52;10.38;;;;;;;;;;5049535;28;20052;-66
2023/01/26 08:31:55;;;;;;;19.65;10.02;;;;;;;;;;5051756;28;20049;-66
2023/01/26 08:34:21;;;;;;;19.63;10.48;;;;;;;;;;5052138;28;20057;-66
2023/01/26 08:36:48;;;;;;;19.90;10.48;;;;;;;;;;5051947;28;20136;-67
2023/01/26 08:39:14;;;;;;;24.60;11.45;;;;;;;;;;5050856;28;20049;-65
2023/01/26 08:41:41;;;;;;;22.02;11.18;;;;;;;;;;5051920;28;20127;-66
2023/01/26 08:44:08;;;;;;;20.75;10.48;;;;;;;;;;5050219;28;20072;-65
2023/01/26 08:46:35;;;;;;;23.57;11.43;;;;;;;;;;5051576;28;20049;-65
2023/01/26 08:49:01;;;;;;;18.75;10.48;;;;;;;;;;5051382;28;20296;-66
2023/01/26 08:51:28;;;;;;;24.15;11.25;;;;;;;;;;5051489;28;20487;-66
2023/01/26 08:53:54;;;;;;;21.10;11.30;;;;;;;;;;5050424;28;20136;-66
2023/01/26 08:56:21;;;;;;;22.90;10.50;;;;;;;;;;5051170;28;20049;-66
2023/01/26 08:58:47;;;;;;;28.77;10.65;;;;;;;;;;5051645;28;20049;-66
2023/01/26 09:01:14;;;;;;;21.70;10.35;;;;;;;;;;5050898;28;20052;-66
2023/01/26 09:03:42;;;;;;;19.00;10.33;;;;;;;;;;5048963;28;20092;-66
2023/01/26 09:06:09;;;;;;;16.77;9.65;;;;;;;;;;5049361;28;20063;-66
2023/01/26 09:08:36;;;;;;;19.75;10.40;;;;;;;;;;5049232;28;20132;-65
2023/01/26 09:11:04;;;;;;;19.83;9.93;;;;;;;;;;5049332;28;20052;-66
2023/01/26 09:13:30;;;;;;;19.88;9.05;;;;;;;;;;5050571;28;20049;-66
2023/01/26 09:15:57;;;;;;;19.30;10.55;;;;;;;;;;5051607;28;20129;-66
2023/01/26 09:18:23;;;;;;;17.92;10.25;;;;;;;;;;5046890;28;20061;-65
2023/01/26 09:20:50;;;;;;;17.00;9.13;;;;;;;;;;5040779;28;20073;-66
2023/01/26 09:23:17;;;;;;;15.38;9.05;;;;;;;;;;5036797;28;20080;-66
2023/01/26 09:25:43;;;;;;;14.55;7.45;;;;;;;;;;5048954;28;20110;-66
2023/01/26 09:28:10;;;;;;;15.25;7.78;;;;;;;;;;5041280;28;20049;-65
2023/01/26 09:30:36;;;;;;;17.00;7.28;;;;;;;;;;5045863;28;20048;-66
2023/01/26 09:33:03;;;;;;;10.35;6.72;;;;;;;;;;5051357;28;20041;-66
2023/01/26 09:35:30;;;;;;;15.85;6.82;;;;;;;;;;5051358;28;20444;-66
2023/01/26 09:37:56;;;;;;;11.75;6.03;;;;;;;;;;5050943;28;20074;-66
2023/01/26 09:40:43;;;;;;;11.23;5.70;;;;;;;;;;5051001;28;20056;-66
2023/01/26 09:43:12;;;;;;;34.47;13.68;;;;;;;;;;5049774;28;20053;-66
2023/01/26 09:45:43;;;;;;;39.95;19.10;;;;;;;;;;5051106;28;20045;-67
2023/01/26 09:48:30;;;;;;;14.68;8.82;;;;;;;;;;5042053;28;20046;-66
2023/01/26 09:50:56;;;;;;;;;;;;;;;;;;5054817;28;20506;-67
2023/01/26 09:53:39;;;;;;;15.02;7.20;;;;;;;;;;5051696;28;19934;-66
2023/01/26 09:56:12;;;;;;;12.82;7.18;;;;;;;;;;5043575;28;20128;-66
2023/01/26 09:58:39;;;;;;;13.75;7.80;;;;;;;;;;5054581;28;20564;-66
2023/01/26 10:01:13;;;;;;;13.65;7.30;;;;;;;;;;5054557;28;20140;-66
2023/01/26 10:03:58;;;;;;;14.25;7.43;;;;;;;;;;5053062;28;20069;-66
2023/01/26 10:06:30;;;;;;;16.90;8.68;;;;;;;;;;5054692;28;20051;-66
2023/01/26 10:08:59;;;;;;;16.83;9.00;;;;;;;;;;5053043;28;20412;-66
2023/01/26 10:11:43;;;;;;;13.27;7.53;;;;;;;;;;5054357;28;20059;-66
2023/01/26 10:14:31;;;;;;;17.45;8.57;;;;;;;;;;5054301;28;20394;-66
2023/01/26 10:16:57;;;;;;;;;;;;;;;;;;5054650;28;20590;-66
2023/01/26 10:19:29;;;;;;;15.13;8.40;;;;;;;;;;5053122;28;19944;-66
2023/01/26 10:21:59;;;;;;;17.98;10.23;;;;;;;;;;5054087;28;20401;-66
2023/01/26 10:24:25;;;;;;;19.33;9.13;;;;;;;;;;5054092;28;20051;-66
2023/01/26 10:26:55;;;;;;;14.15;7.60;;;;;;;;;;5054364;28;20053;-66
2023/01/26 10:29:21;;;;;;;17.48;8.85;;;;;;;;;;5053975;28;20053;-66
2023/01/26 10:31:48;;;;;;;14.35;8.00;;;;;;;;;;5053946;28;20053;-66
2023/01/26 10:34:25;;;;;;;10.43;7.45;;;;;;;;;;5053987;28;20049;-66
2023/01/26 10:36:55;;;;;;;16.47;7.47;;;;;;;;;;5054031;28;20048;-66
2023/01/26 10:39:22;;;;;;;13.57;8.38;;;;;;;;;;5053846;28;20049;-66
2023/01/26 10:42:01;;;;;;;14.90;7.38;;;;;;;;;;5053942;28;20427;-66
2023/01/26 10:44:30;;;;;;;13.93;8.25;;;;;;;;;;5053981;28;20055;-66
2023/01/26 10:47:02;;;;;;;13.90;7.78;;;;;;;;;;5053876;28;20044;-66
2023/01/26 10:49:29;;;;;;;13.60;6.82;;;;;;;;;;5053908;28;20135;-66
2023/01/26 10:52:07;;;;;;;14.15;7.45;;;;;;;;;;5053761;28;20392;-66
2023/01/26 10:54:35;;;;;;;12.73;6.80;;;;;;;;;;5053540;28;20053;-66
2023/01/26 10:57:05;;;;;;;14.98;6.68;;;;;;;;;;5053800;28;20048;-66
2023/01/26 10:59:42;;;;;;;14.32;7.28;;;;;;;;;;5053807;28;20083;-66
2023/01/26 11:02:14;;;;;;;11.30;5.88;;;;;;;;;;5052776;28;20059;-66
2023/01/26 11:04:59;;;;;;;12.73;6.47;;;;;;;;;;5052062;28;20059;-66
2023/01/26 11:07:27;;;;;;;11.43;6.68;;;;;;;;;;5053318;28;20550;-66
2023/01/26 11:09:54;;;;;;;14.02;5.95;;;;;;;;;;5053466;28;20040;-66
2023/01/26 11:12:23;;;;;;;11.63;6.25;;;;;;;;;;5053164;28;20492;-66
2023/01/26 11:15:01;;;;;;;12.25;6.55;;;;;;;;;;5053468;28;20084;-66
2023/01/26 11:17:48;;;;;;;16.05;6.68;;;;;;;;;;5052176;28;20128;-66
2023/01/26 11:20:29;;;;;;;12.00;6.03;;;;;;;;;;5051833;28;20049;-66
2023/01/26 11:23:00;;;;;;;11.80;6.55;;;;;;;;;;5052955;28;20052;-65
2023/01/26 11:25:33;;;;;;;9.55;5.75;;;;;;;;;;5052845;28;20519;-66
2023/01/26 11:28:12;;;;;;;9.10;6.15;;;;;;;;;;5053013;28;20507;-66
2023/01/26 11:30:38;;;;;;;11.35;5.50;;;;;;;;;;5052989;28;20132;-66
2023/01/26 11:33:10;;;;;;;10.68;5.70;;;;;;;;;;5052867;28;20048;-66
2023/01/26 11:35:46;;;;;;;13.63;6.63;;;;;;;;;;5052659;28;20424;-66
2023/01/26 11:38:31;;;;;;;10.75;5.53;;;;;;;;;;5052931;28;20049;-66
2023/01/26 11:41:10;;;;;;;12.15;5.97;;;;;;;;;;5052673;28;20386;-65
2023/01/26 11:43:50;;;;;;;12.15;5.72;;;;;;;;;;5052755;28;20045;-66
2023/01/26 11:46:20;;;;;;;8.05;4.38;;;;;;;;;;5052409;28;20049;-66
2023/01/26 11:48:52;;;;;;;8.65;4.28;;;;;;;;;;5052764;28;20090;-66
2023/01/26 11:51:19;;;;;;;6.70;4.05;;;;;;;;;;5052487;28;20049;-66
2023/01/26 11:53:45;;;;;;;7.88;3.95;;;;;;;;;;5052938;28;20049;-66
2023/01/26 11:56:18;;;;;;;7.45;3.65;;;;;;;;;;5052640;28;20052;-66
2023/01/26 11:58:54;;;;;;;7.50;3.78;;;;;;;;;;5052284;28;20045;-66
2023/01/26 12:01:43;;;;;;;6.85;3.60;;;;;;;;;;5052848;28;20049;-65
2023/01/26 12:04:16;;;;;;;8.73;3.40;;;;;;;;;;5051068;28;20056;-65
2023/01/26 12:06:44;;;;;;;5.97;3.22;;;;;;;;;;5052102;28;20072;-66
2023/01/26 12:09:19;;;;;;;6.57;3.10;;;;;;;;;;5052361;28;20079;-66
2023/01/26 12:11:57;;;;;;;6.82;3.47;;;;;;;;;;5052246;28;20072;-66
2023/01/26 12:14:40;;;;;;;6.90;3.25;;;;;;;;;;5052076;28;20055;-66
2023/01/26 12:17:15;;;;;;;7.20;3.53;;;;;;;;;;5052003;28;20140;-66
2023/01/26 12:19:44;;;;;;;6.28;3.33;;;;;;;;;;5052274;28;20049;-66
2023/01/26 12:22:23;;;;;;;9.50;4.95;;;;;;;;;;5051768;28;20139;-66
2023/01/26 12:24:56;;;;;;;7.00;3.97;;;;;;;;;;5051978;28;20045;-66
2023/01/26 12:28:08;;;;;;;9.70;4.50;;;;;;;;;;5048560;28;20436;-66
2023/01/26 12:30:39;;;;;;;7.38;4.10;;;;;;;;;;5041087;28;20049;-66
2023/01/26 12:33:07;;;;;;;8.75;4.80;;;;;;;;;;5051448;28;20099;-66
2023/01/26 12:35:52;;;;;;;9.38;4.85;;;;;;;;;;5048867;28;20493;-66
2023/01/26 12:38:27;;;;;;;8.95;4.15;;;;;;;;;;5051290;28;20048;-66
2023/01/26 12:41:02;;;;;;;6.07;2.97;;;;;;;;;;5051508;28;20056;-66
2023/01/26 12:43:37;;;;;;;8.80;3.70;;;;;;;;;;5051098;28;20151;-66
2023/01/26 12:46:04;;;;;;;7.97;3.67;;;;;;;;;;5048540;28;20049;-66
2023/01/26 12:48:37;;;;;;;6.80;3.08;;;;;;;;;;5050119;28;20036;-66
2023/01/26 12:51:06;;;;;;;9.07;3.92;;;;;;;;;;5051407;28;20052;-66
2023/01/26 12:53:35;;;;;;;7.05;3.05;;;;;;;;;;5051197;28;20127;-66
2023/01/26 12:56:03;;;;;;;9.10;3.20;;;;;;;;;;5050993;28;20562;-66
2023/01/26 12:58:36;;;;;;;6.85;3.22;;;;;;;;;;5044530;28;20476;-66
2023/01/26 13:01:10;;;;;;;8.77;4.03;;;;;;;;;;5051494;28;20131;-67
2023/01/26 13:03:40;;;;;;;7.95;4.10;;;;;;;;;;5039722;28;20045;-66
2023/01/26 13:06:09;;;;;;;7.50;3.53;;;;;;;;;;5041344;28;20049;-66
2023/01/26 13:08:36;;;;;;;8.80;3.17;;;;;;;;;;5050783;28;20095;-66
2023/01/26 13:11:05;;;;;;;6.20;3.50;;;;;;;;;;5049513;28;20045;-67
2023/01/26 13:13:32;;;;;;;6.20;3.10;;;;;;;;;;5048869;28;20127;-66
2023/01/26 13:16:14;;;;;;;6.50;3.75;;;;;;;;;;5051131;28;20049;-66
2023/01/26 13:18:53;;;;;;;6.32;2.92;;;;;;;;;;5051037;28;20101;-66
2023/01/26 13:21:27;;;;;;;7.57;3.55;;;;;;;;;;5051043;28;20137;-66
2023/01/26 13:23:53;;;;;;;8.18;3.13;;;;;;;;;;5051773;28;20063;-67
2023/01/26 13:26:22;;;;;;;6.97;3.92;;;;;;;;;;5055556;28;20052;-66
2023/01/26 13:28:49;;;;;;;6.28;4.15;;;;;;;;;;5055076;28;20084;-66
2023/01/26 13:31:32;;;;;;;6.30;4.22;;;;;;;;;;5055356;28;20052;-66
2023/01/26 13:34:00;;;;;;;6.18;3.40;;;;;;;;;;5055001;28;20131;-66
2023/01/26 13:36:29;;;;;;;8.82;4.05;;;;;;;;;;5055001;28;20284;-66
2023/01/26 13:39:00;;;;;;;8.82;3.80;;;;;;;;;;5055298;28;20420;-66
2023/01/26 13:41:26;;;;;;;10.82;5.40;;;;;;;;;;5054941;28;20515;-66
2023/01/26 13:43:56;;;;;;;7.05;3.75;;;;;;;;;;5054938;28;20412;-66
2023/01/26 13:46:25;;;;;;;7.53;3.17;;;;;;;;;;5054710;28;20128;-66
2023/01/26 13:48:53;;;;;;;6.47;3.13;;;;;;;;;;5054809;28;20480;-66
2023/01/26 13:51:23;;;;;;;9.32;3.28;;;;;;;;;;5054833;28;20489;-66
2023/01/26 13:53:53;;;;;;;7.75;3.35;;;;;;;;;;5055352;28;20133;-66
2023/01/26 13:56:24;;;;;;;9.73;2.60;;;;;;;;;;5054758;28;20065;-66
2023/01/26 13:58:51;;;;;;;6.68;2.22;;;;;;;;;;5054589;28;20135;-66
2023/01/26 14:01:17;;;;;;;7.03;2.25;;;;;;;;;;5054721;28;20063;-66
2023/01/26 14:03:44;;;;;;;6.60;2.60;;;;;;;;;;5054458;28;20045;-66
2023/01/26 14:06:13;;;;;;;10.40;2.75;;;;;;;;;;5054506;28;20051;-66
2023/01/26 14:08:43;;;;;;;8.35;2.28;;;;;;;;;;5053137;28;20487;-66
2023/01/26 14:11:15;;;;;;;4.97;2.00;;;;;;;;;;5054203;28;20489;-66
2023/01/26 14:13:41;;;;;;;7.70;2.20;;;;;;;;;;5054364;28;20060;-66
2023/01/26 14:16:18;;;;;;;9.50;2.58;;;;;;;;;;5054280;28;20139;-66
2023/01/26 14:18:46;;;;;;;6.47;2.35;;;;;;;;;;5054306;28;20161;-66
2023/01/26 14:21:13;;;;;;;;;;;;;;;;;;5054482;28;20412;-66
2023/01/26 14:23:39;;;;;;;4.93;2.10;;;;;;;;;;5054420;28;19924;-66
2023/01/26 14:26:11;;;;;;;5.75;2.58;;;;;;;;;;5054293;28;20070;-66
2023/01/26 14:28:40;;;;;;;7.35;2.08;;;;;;;;;;5054343;28;20059;-66
2023/01/26 14:31:21;;;;;;;2.85;1.85;;;;;;;;;;5054267;28;20382;-65
2023/01/26 14:33:51;;;;;;;7.28;2.50;;;;;;;;;;5052881;28;20083;-65
2023/01/26 14:36:19;;;;;;;5.90;2.53;;;;;;;;;;5052890;28;20053;-66
2023/01/26 14:38:46;;;;;;;14.68;6.88;;;;;;;;;;5054080;28;20057;-66
2023/01/26 14:41:19;;;;;;;7.90;3.20;;;;;;;;;;5053802;28;20087;-66
2023/01/26 14:43:47;;;;;;;8.40;3.25;;;;;;;;;;5054067;28;20244;-66
2023/01/26 14:46:20;;;;;;;9.43;3.55;;;;;;;;;;5053995;28;20053;-66
2023/01/26 14:48:51;;;;;;;12.20;5.47;;;;;;;;;;5054153;28;20046;-66
2023/01/26 14:51:21;;;;;;;15.18;6.32;;;;;;;;;;5053989;28;20131;-66
2023/01/26 14:53:49;;;;;;;9.38;4.75;;;;;;;;;;5053660;28;20045;-66
2023/01/26 14:56:17;;;;;;;5.47;2.88;;;;;;;;;;5053817;28;20432;-66
2023/01/26 14:58:43;;;;;;;4.35;2.90;;;;;;;;;;5053507;28;20499;-66
2023/01/26 15:01:18;;;;;;;9.50;3.65;;;;;;;;;;5053750;28;20084;-66
2023/01/26 15:03:45;;;;;;;7.70;3.20;;;;;;;;;;5042524;28;20063;-66
2023/01/26 15:06:12;;;;;;;6.50;3.50;;;;;;;;;;5053227;28;20049;-65
2023/01/26 15:08:39;;;;;;;8.00;2.72;;;;;;;;;;5053419;28;20128;-65
2023/01/26 15:13:52;;;;;;;9.88;3.40;;;;;;;;;;5053207;28;20045;-66
2023/01/26 15:16:22;;;;;;;8.35;2.70;;;;;;;;;;5052496;28;20492;-66
2023/01/26 15:18:59;;;;;;;6.55;2.80;;;;;;;;;;5051654;28;20416;-66
2023/01/26 15:21:31;;;;;;;6.05;2.85;;;;;;;;;;5052082;28;20127;-65
2023/01/26 15:23:57;;;;;;;7.07;3.10;;;;;;;;;;5061843;28;20053;-66
2023/01/26 15:26:34;;;;;;;7.45;3.63;;;;;;;;;;5052635;28;20049;-66
2023/01/26 15:29:03;;;;;;;8.13;3.75;;;;;;;;;;5052545;28;20128;-66
2023/01/26 15:31:36;;;;;;;5.88;3.13;;;;;;;;;;5044347;28;20499;-66
2023/01/26 15:34:03;;;;;;;7.03;2.75;;;;;;;;;;5046154;28;20056;-66